Luck, Wisconsin
Current Conditions -  °F | °C
As of 11:55 PM on Saturday 22 Nov 2014 (Local Time) from KRZN Reporting Station
Haze Haze  
Wind Chill: 33°   Ceiling: 300
Heat Index: 38°   Visibility: 1.7mi
Dew Point: 37°   Wind: 6mph
Humidity: 99%   Direction: 140°SE
Pressure: 29.52"   Gusts: NA
Location:  45.58°N, 92.48°W
Report Text: KRZN 230555Z AUTO 14005KT 1 3/4SM BR OVC003 03/03 A2952 RMK AO2 T00320030 10033 20010 400331006
Loading
Personal Weather Stations






























Interactive Weather Map New forecast layout! Learn more

10-Day Weather Forecast

Advertisements
Track Severe Weather on mobile